createdAt,value
2023-05-09T00:01:31.773Z,100260.19
2023-05-09T00:04:00.156Z,100260.07
2023-05-09T00:06:28.603Z,100260.79
2023-05-09T00:08:56.930Z,100256.83
2023-05-09T00:11:25.377Z,100252.86
2023-05-09T00:13:53.745Z,100252.75
2023-05-09T00:16:24.474Z,100249.27
2023-05-09T00:18:52.925Z,100245.98
2023-05-09T00:21:21.235Z,100246.36
2023-05-09T00:23:49.639Z,100244.81
2023-05-09T00:26:18.006Z,100238.06
2023-05-09T00:28:46.404Z,100235.34
2023-05-09T00:31:15.174Z,100236.28
2023-05-09T00:33:43.576Z,100237.77
2023-05-09T00:36:11.979Z,100233.10
2023-05-09T00:38:40.371Z,100233.15
2023-05-09T00:41:08.556Z,100231.61
2023-05-09T00:43:36.901Z,100234.50
2023-05-09T00:46:05.318Z,100229.65
2023-05-09T00:48:35.725Z,100232.63
2023-05-09T00:51:04.907Z,100229.31
2023-05-09T00:53:34.046Z,100231.11
2023-05-09T00:56:02.409Z,100226.94
2023-05-09T00:58:30.821Z,100227.51
2023-05-09T01:01:00.924Z,100231.58
2023-05-09T01:03:30.199Z,100228.96
2023-05-09T01:06:20.094Z,100230.39
2023-05-09T01:09:09.157Z,100224.84
2023-05-09T01:11:43.542Z,100220.54
2023-05-09T01:14:45.303Z,100223.02
2023-05-09T01:17:20.181Z,100222.55
2023-05-09T01:20:21.704Z,100222.61
2023-05-09T01:23:05.013Z,100221.25
2023-05-09T01:26:08.624Z,100220.82
2023-05-09T01:28:58.638Z,100221.70
2023-05-09T01:31:27.153Z,100218.93
2023-05-09T01:34:00.005Z,100222.13
2023-05-09T01:36:33.025Z,100218.98
2023-05-09T01:39:04.532Z,100223.55
2023-05-09T01:41:37.574Z,100216.96
2023-05-09T01:44:12.470Z,100217.54
2023-05-09T01:46:42.834Z,100219.13
2023-05-09T01:49:12.122Z,100220.23
2023-05-09T01:51:43.932Z,100220.23
2023-05-09T01:54:15.266Z,100221.11
2023-05-09T01:56:45.069Z,100219.58
2023-05-09T01:59:16.478Z,100215.60
2023-05-09T02:01:45.819Z,100211.08
2023-05-09T02:04:17.337Z,100215.30
2023-05-09T02:06:50.906Z,100216.76
2023-05-09T02:09:20.314Z,100218.50
2023-05-09T02:11:48.736Z,100216.25
2023-05-09T02:14:17.840Z,100215.41
2023-05-09T02:16:46.302Z,100211.09
2023-05-09T02:19:14.716Z,100213.20
2023-05-09T02:21:43.970Z,100209.36
2023-05-09T02:24:12.350Z,100211.67
2023-05-09T02:26:41.444Z,100208.93
2023-05-09T02:29:11.831Z,100205.83
2023-05-09T02:31:41.537Z,100207.30
2023-05-09T02:34:11.315Z,100209.96
2023-05-09T02:36:40.802Z,100208.60
2023-05-09T02:39:09.630Z,100208.45
2023-05-09T02:41:37.969Z,100205.88
2023-05-09T02:44:06.182Z,100205.39
2023-05-09T02:46:34.478Z,100205.75
2023-05-09T02:49:02.830Z,100204.92
2023-05-09T02:51:31.231Z,100200.06
2023-05-09T02:53:59.617Z,100199.23
2023-05-09T02:56:27.954Z,100201.86
2023-05-09T02:58:56.230Z,100202.59
2023-05-09T03:01:24.990Z,100203.64
2023-05-09T03:03:53.428Z,100205.23
2023-05-09T03:06:21.912Z,100206.42
2023-05-09T03:08:50.222Z,100210.43
2023-05-09T03:11:19.294Z,100205.20
2023-05-09T03:13:48.955Z,100204.46
2023-05-09T03:16:18.545Z,100205.34
2023-05-09T03:18:46.943Z,100202.89
2023-05-09T03:21:15.136Z,100205.80
2023-05-09T03:23:43.476Z,100204.04
2023-05-09T03:26:11.753Z,100207.84
2023-05-09T03:28:40.884Z,100205.05
2023-05-09T03:31:09.774Z,100211.30
2023-05-09T03:33:38.161Z,100206.55
2023-05-09T03:36:06.926Z,100209.65
2023-05-09T03:38:35.649Z,100210.12
2023-05-09T03:41:04.175Z,100212.88
2023-05-09T03:43:32.508Z,100218.41
2023-05-09T03:46:00.836Z,100218.36
2023-05-09T03:48:29.124Z,100216.70
2023-05-09T03:50:58.900Z,100213.52
2023-05-09T03:53:28.578Z,100215.15
2023-05-09T03:55:56.967Z,100214.00
2023-05-09T03:58:27.057Z,100212.13
2023-05-09T04:00:56.305Z,100213.04
2023-05-09T04:03:24.993Z,100211.67
2023-05-09T04:05:53.936Z,100209.77
2023-05-09T04:08:30.396Z,100208.03
2023-05-09T04:10:58.603Z,100210.52
2023-05-09T04:13:28.345Z,100212.83
2023-05-09T04:15:56.884Z,100212.48
2023-05-09T04:18:25.841Z,100210.21
2023-05-09T04:20:54.812Z,100210.36
2023-05-09T04:23:23.840Z,100211.59
2023-05-09T04:25:54.453Z,100209.59
2023-05-09T04:28:23.159Z,100203.21
2023-05-09T04:30:51.914Z,100204.65
2023-05-09T04:33:21.473Z,100202.56
2023-05-09T04:35:51.929Z,100206.39
2023-05-09T04:38:21.723Z,100204.54
2023-05-09T04:40:50.194Z,100205.46
2023-05-09T04:43:18.498Z,100207.11
2023-05-09T04:45:46.812Z,100204.30
2023-05-09T04:48:15.803Z,100202.55
2023-05-09T04:50:44.136Z,100200.77
2023-05-09T04:53:12.589Z,100201.07
2023-05-09T04:55:40.944Z,100201.35
2023-05-09T04:58:10.089Z,100199.52
2023-05-09T05:00:39.000Z,100198.59
2023-05-09T05:03:08.059Z,100191.48
2023-05-09T05:05:37.698Z,100190.43
2023-05-09T05:08:07.065Z,100188.04
2023-05-09T05:10:37.563Z,100190.60
2023-05-09T05:13:09.487Z,100190.55
2023-05-09T05:15:40.868Z,100190.31
2023-05-09T05:18:09.605Z,100184.10
2023-05-09T05:20:41.724Z,100178.42
2023-05-09T05:23:11.251Z,100176.60
2023-05-09T05:25:39.728Z,100180.25
2023-05-09T05:28:08.281Z,100177.55
2023-05-09T05:30:37.359Z,100176.42
2023-05-09T05:33:05.810Z,100177.58
2023-05-09T05:35:34.378Z,100177.27
2023-05-09T05:38:03.373Z,100180.29
2023-05-09T05:40:31.801Z,100172.15
2023-05-09T05:43:04.065Z,100170.80
2023-05-09T05:45:33.319Z,100168.98
2023-05-09T05:48:03.231Z,100164.42
2023-05-09T05:50:33.031Z,100155.48
2023-05-09T05:53:01.646Z,100151.97
2023-05-09T05:55:30.151Z,100150.04
2023-05-09T05:57:59.416Z,100151.59
2023-05-09T06:00:28.723Z,100150.73
2023-05-09T06:03:02.128Z,100144.55
2023-05-09T06:05:44.677Z,100144.52
2023-05-09T06:08:13.320Z,100147.42
2023-05-09T06:10:53.770Z,100148.98
2023-05-09T06:13:22.466Z,100147.84
2023-05-09T06:16:14.977Z,100144.16
2023-05-09T06:18:47.876Z,100140.34
2023-05-09T06:21:16.220Z,100137.20
2023-05-09T06:24:04.283Z,100132.59
2023-05-09T06:26:37.383Z,100130.46
2023-05-09T06:29:08.910Z,100127.58
2023-05-09T06:31:39.303Z,100129.16
2023-05-09T06:34:08.430Z,100121.42
2023-05-09T06:36:36.668Z,100122.84
2023-05-09T06:39:04.857Z,100124.38
2023-05-09T06:41:33.225Z,100122.02
2023-05-09T06:44:02.794Z,100119.30
2023-05-09T06:46:31.112Z,100114.77
2023-05-09T06:49:01.935Z,100113.88
2023-05-09T06:51:31.605Z,100109.34
2023-05-09T06:54:00.027Z,100106.71
2023-05-09T06:56:28.427Z,100105.10
2023-05-09T06:58:56.854Z,100104.83
2023-05-09T07:01:25.336Z,100106.89
2023-05-09T07:03:53.752Z,100102.98
2023-05-09T07:06:22.126Z,100102.63
2023-05-09T07:08:50.841Z,100103.54
2023-05-09T07:11:19.217Z,100103.31
2023-05-09T07:13:47.402Z,100102.39
2023-05-09T07:16:18.166Z,100100.52
2023-05-09T07:18:46.436Z,100095.39
2023-05-09T07:21:14.720Z,100089.23
2023-05-09T07:23:43.011Z,100089.90
2023-05-09T07:26:11.353Z,100086.02
2023-05-09T07:28:39.711Z,100084.42
2023-05-09T07:31:09.406Z,100080.02
2023-05-09T07:33:37.683Z,100078.02
2023-05-09T07:36:06.281Z,100081.23
2023-05-09T07:38:36.279Z,100082.03
2023-05-09T07:41:04.705Z,100077.50
2023-05-09T07:43:32.996Z,100073.05
2023-05-09T07:46:02.275Z,100073.17
2023-05-09T07:48:30.656Z,100073.25
2023-05-09T07:50:58.965Z,100067.17
2023-05-09T07:53:27.323Z,100063.23
2023-05-09T07:55:55.704Z,100063.13
2023-05-09T07:58:23.972Z,100063.36
2023-05-09T08:00:52.275Z,100061.05
2023-05-09T08:03:21.100Z,100064.22
2023-05-09T08:05:53.183Z,100059.23
2023-05-09T08:08:21.818Z,100058.16
2023-05-09T08:10:50.166Z,100054.34
2023-05-09T08:13:19.381Z,100050.70
2023-05-09T08:15:48.343Z,100043.17
2023-05-09T08:18:16.773Z,100039.49
2023-05-09T08:20:45.981Z,100044.59
2023-05-09T08:23:14.326Z,100041.29
2023-05-09T08:25:43.131Z,100041.52
2023-05-09T08:28:11.590Z,100033.46
2023-05-09T08:30:40.815Z,100024.86
2023-05-09T08:33:09.238Z,100024.33
2023-05-09T08:35:37.511Z,100027.48
2023-05-09T08:38:05.884Z,100028.39
2023-05-09T08:40:38.215Z,100024.20
2023-05-09T08:43:07.903Z,100022.45
2023-05-09T08:45:45.415Z,100019.43
2023-05-09T08:48:16.961Z,100020.05
2023-05-09T08:50:45.776Z,100015.20
2023-05-09T08:53:14.923Z,100013.25
2023-05-09T08:55:43.463Z,100012.77
2023-05-09T08:58:13.644Z,100008.15
2023-05-09T09:00:42.135Z,100006.46
2023-05-09T09:03:10.661Z,100010.21
2023-05-09T09:05:43.461Z,100006.67
2023-05-09T09:08:12.627Z,100002.46
2023-05-09T09:10:43.653Z,100000.69
2023-05-09T09:13:13.746Z,99998.55
2023-05-09T09:15:45.433Z,100004.70
2023-05-09T09:18:22.340Z,100003.48
2023-05-09T09:20:58.059Z,100004.84
2023-05-09T09:23:29.203Z,100000.83
2023-05-09T09:26:02.670Z,100003.95
2023-05-09T09:28:31.134Z,100000.91
2023-05-09T09:30:59.518Z,99997.00
2023-05-09T09:33:29.405Z,99997.48
2023-05-09T09:35:57.996Z,99992.55
2023-05-09T09:38:27.261Z,99996.02
2023-05-09T09:40:57.018Z,99996.33
2023-05-09T09:43:30.147Z,99988.44
2023-05-09T09:46:03.460Z,99983.19
2023-05-09T09:48:34.061Z,99988.16
2023-05-09T09:51:09.219Z,99983.80
2023-05-09T09:53:42.491Z,99978.67
2023-05-09T09:56:12.143Z,99974.89
2023-05-09T09:58:40.552Z,99974.04
2023-05-09T10:01:12.098Z,99972.33
2023-05-09T10:03:42.898Z,99973.14
2023-05-09T10:06:13.211Z,99971.52
2023-05-09T10:08:47.113Z,99968.20
2023-05-09T10:11:15.654Z,99964.43
2023-05-09T10:13:45.430Z,99960.48
2023-05-09T10:16:14.631Z,99966.52
2023-05-09T10:18:43.319Z,99969.53
2023-05-09T10:21:16.019Z,99966.98
2023-05-09T10:23:48.836Z,99958.84
2023-05-09T10:26:27.833Z,99954.71
2023-05-09T10:28:58.807Z,99955.06
2023-05-09T10:31:29.675Z,99961.56
2023-05-09T10:34:05.755Z,99955.58
2023-05-09T10:36:34.869Z,99953.19
2023-05-09T10:39:03.134Z,99944.08
2023-05-09T10:41:32.586Z,99945.94
2023-05-09T10:44:01.143Z,99942.41
2023-05-09T10:46:29.925Z,99946.12
2023-05-09T10:48:59.117Z,99938.58
2023-05-09T10:51:27.731Z,99935.13
2023-05-09T10:53:56.515Z,99937.64
2023-05-09T10:56:40.043Z,99936.94
2023-05-09T10:59:34.977Z,99938.23
2023-05-09T11:02:04.635Z,99934.58
2023-05-09T11:04:33.493Z,99924.94
2023-05-09T11:07:01.779Z,99922.23
2023-05-09T11:09:38.992Z,99915.77
2023-05-09T11:12:07.386Z,99909.09
2023-05-09T11:14:35.715Z,99904.92
2023-05-09T11:17:06.784Z,99910.81
2023-05-09T11:19:50.921Z,99919.36
2023-05-09T11:22:28.799Z,99919.31
2023-05-09T11:25:05.308Z,99905.85
2023-05-09T11:27:52.446Z,99904.30
2023-05-09T11:30:21.201Z,99903.96
2023-05-09T11:32:55.788Z,99905.27
2023-05-09T11:35:27.242Z,99897.56
2023-05-09T11:38:06.787Z,99891.73
2023-05-09T11:40:35.601Z,99889.38
2023-05-09T11:43:03.873Z,99888.19
2023-05-09T11:45:33.660Z,99886.39
2023-05-09T11:48:08.982Z,99886.39
2023-05-09T11:50:37.398Z,99881.52
2023-05-09T11:53:08.531Z,99872.44
2023-05-09T11:55:38.147Z,99868.39
2023-05-09T11:58:07.414Z,99871.47
2023-05-09T12:00:37.458Z,99870.13
2023-05-09T12:03:06.834Z,99862.71
2023-05-09T12:05:39.668Z,99859.64
2023-05-09T12:08:09.428Z,99865.70
2023-05-09T12:10:39.837Z,99864.74
2023-05-09T12:13:10.740Z,99861.55
2023-05-09T12:15:39.225Z,99856.61
2023-05-09T12:18:09.114Z,99861.42
2023-05-09T12:20:51.398Z,99859.03
2023-05-09T12:23:19.995Z,99850.06
2023-05-09T12:25:48.978Z,99843.86
2023-05-09T12:28:18.592Z,99838.31
2023-05-09T12:30:46.990Z,99840.25
2023-05-09T12:33:16.484Z,99834.61
2023-05-09T12:35:49.422Z,99840.31
2023-05-09T12:38:24.638Z,99843.27
2023-05-09T12:41:03.971Z,99840.34
2023-05-09T12:43:38.028Z,99843.99
2023-05-09T12:46:06.390Z,99839.75
2023-05-09T12:48:38.121Z,99839.27
2023-05-09T12:51:07.552Z,99831.66
2023-05-09T12:53:41.157Z,99824.91
2023-05-09T12:56:20.522Z,99820.06
2023-05-09T12:58:55.851Z,99818.39
2023-05-09T13:01:29.082Z,99810.45
2023-05-09T13:04:05.878Z,99809.98
2023-05-09T13:06:36.415Z,99806.49
2023-05-09T13:09:06.628Z,99802.30
2023-05-09T13:11:35.459Z,99795.52
2023-05-09T13:14:04.373Z,99788.50
2023-05-09T13:16:32.773Z,99794.66
2023-05-09T13:19:01.888Z,99793.73
2023-05-09T13:21:30.203Z,99787.94
2023-05-09T13:23:58.608Z,99791.59
2023-05-09T13:26:27.675Z,99790.59
2023-05-09T13:28:56.855Z,99786.08
2023-05-09T13:31:25.563Z,99777.36
2023-05-09T13:33:54.073Z,99772.98
2023-05-09T13:36:22.541Z,99768.09
2023-05-09T13:38:51.103Z,99769.58
2023-05-09T13:41:24.119Z,99772.37
2023-05-09T13:43:52.513Z,99776.75
2023-05-09T13:46:20.923Z,99774.02
2023-05-09T13:48:49.262Z,99765.77
2023-05-09T13:51:17.680Z,99762.92
2023-05-09T13:53:46.045Z,99767.15
2023-05-09T13:56:14.314Z,99769.38
2023-05-09T13:58:42.676Z,99771.61
2023-05-09T14:01:11.577Z,99767.33
2023-05-09T14:03:39.883Z,99768.66
2023-05-09T14:06:10.687Z,99762.90
2023-05-09T14:08:39.939Z,99757.94
2023-05-09T14:11:09.598Z,99750.17
2023-05-09T14:13:37.805Z,99741.94
2023-05-09T14:16:06.952Z,99738.33
2023-05-09T14:18:35.414Z,99733.39
2023-05-09T14:21:03.756Z,99734.60
2023-05-09T14:23:32.178Z,99741.36
2023-05-09T14:26:00.739Z,99746.36
2023-05-09T14:28:29.035Z,99747.54
2023-05-09T14:30:58.032Z,99750.21
2023-05-09T14:33:27.765Z,99745.29
2023-05-09T14:35:56.590Z,99745.16
2023-05-09T14:38:24.953Z,99741.34
2023-05-09T14:40:53.304Z,99739.60
2023-05-09T14:43:22.692Z,99735.55
2023-05-09T14:45:51.768Z,99730.23
2023-05-09T14:48:20.083Z,99723.65
2023-05-09T14:50:49.956Z,99719.59
2023-05-09T14:53:18.707Z,99718.02
2023-05-09T14:55:47.188Z,99722.30
2023-05-09T14:58:16.438Z,99726.07
2023-05-09T15:00:46.074Z,99726.45
2023-05-09T15:03:14.618Z,99722.71
2023-05-09T15:05:42.977Z,99718.48
2023-05-09T15:08:11.296Z,99714.67
2023-05-09T15:10:39.782Z,99714.02
2023-05-09T15:13:08.252Z,99710.91
2023-05-09T15:15:39.072Z,99708.02
2023-05-09T15:18:13.357Z,99703.81
2023-05-09T15:20:41.787Z,99699.98
2023-05-09T15:23:13.379Z,99695.45
2023-05-09T15:25:42.649Z,99693.80
2023-05-09T15:28:11.029Z,99688.67
2023-05-09T15:30:41.354Z,99688.88
2023-05-09T15:33:09.808Z,99691.13
2023-05-09T15:35:39.921Z,99688.09
2023-05-09T15:38:12.138Z,99685.74
2023-05-09T15:40:41.589Z,99688.86
2023-05-09T15:43:09.897Z,99684.37
2023-05-09T15:45:46.834Z,99679.46
2023-05-09T15:48:16.481Z,99681.83
2023-05-09T15:50:45.357Z,99678.42
2023-05-09T15:53:15.793Z,99677.13
2023-05-09T15:55:44.795Z,99676.56
2023-05-09T15:58:14.225Z,99675.85
2023-05-09T16:00:42.760Z,99671.48
2023-05-09T16:03:11.168Z,99667.95
2023-05-09T16:05:41.094Z,99666.81
2023-05-09T16:08:09.599Z,99670.73
2023-05-09T16:10:38.159Z,99666.66
2023-05-09T16:13:07.727Z,99662.17
2023-05-09T16:15:36.856Z,99658.55
2023-05-09T16:18:05.474Z,99656.56
2023-05-09T16:20:37.333Z,99652.15
2023-05-09T16:23:05.812Z,99651.71
2023-05-09T16:25:35.557Z,99649.28
2023-05-09T16:28:05.149Z,99648.03
2023-05-09T16:30:33.492Z,99644.52
2023-05-09T16:33:01.912Z,99642.36
2023-05-09T16:35:32.697Z,99640.33
2023-05-09T16:38:01.907Z,99635.91
2023-05-09T16:40:30.403Z,99632.82
2023-05-09T16:43:01.329Z,99633.59
2023-05-09T16:45:29.741Z,99635.02
2023-05-09T16:48:00.658Z,99635.66
2023-05-09T16:50:30.908Z,99635.21
2023-05-09T16:52:59.520Z,99632.05
2023-05-09T16:55:28.768Z,99629.56
2023-05-09T16:57:57.204Z,99631.20
2023-05-09T17:00:25.581Z,99630.30
2023-05-09T17:02:54.758Z,99627.04
2023-05-09T17:05:23.278Z,99629.07
2023-05-09T17:07:53.782Z,99626.43
2023-05-09T17:10:23.142Z,99625.69
2023-05-09T17:12:53.773Z,99625.66
2023-05-09T17:15:22.149Z,99621.52
2023-05-09T17:17:50.632Z,99623.53
2023-05-09T17:20:19.083Z,99619.98
2023-05-09T17:22:47.472Z,99619.88
2023-05-09T17:25:17.048Z,99616.83
2023-05-09T17:27:45.655Z,99614.98
2023-05-09T17:30:14.249Z,99618.46
2023-05-09T17:32:43.036Z,99620.02
2023-05-09T17:35:12.430Z,99620.52
2023-05-09T17:37:40.950Z,99620.29
2023-05-09T17:40:10.013Z,99625.59
2023-05-09T17:42:38.714Z,99621.19
2023-05-09T17:45:07.875Z,99623.45
2023-05-09T17:47:37.788Z,99625.59
2023-05-09T17:50:10.776Z,99622.61
2023-05-09T17:52:39.070Z,99625.85
2023-05-09T17:55:08.476Z,99621.50
2023-05-09T17:57:36.745Z,99621.60
2023-05-09T18:00:09.627Z,99623.28
2023-05-09T18:02:43.935Z,99623.86
2023-05-09T18:05:14.011Z,99623.29
2023-05-09T18:07:43.976Z,99626.23
2023-05-09T18:10:12.788Z,99625.20
2023-05-09T18:12:41.914Z,99623.37
2023-05-09T18:15:10.685Z,99618.88
2023-05-09T18:17:39.534Z,99619.44
2023-05-09T18:20:08.750Z,99623.27
2023-05-09T18:22:37.423Z,99629.80
2023-05-09T18:25:06.441Z,99631.80
2023-05-09T18:27:34.674Z,99631.42
2023-05-09T18:30:02.968Z,99636.59
2023-05-09T18:32:32.524Z,99634.81
2023-05-09T18:35:01.062Z,99633.53
2023-05-09T18:37:29.397Z,99636.20
2023-05-09T18:39:57.757Z,99639.87
2023-05-09T18:42:26.215Z,99644.48
2023-05-09T18:44:54.624Z,99641.05
2023-05-09T18:47:27.835Z,99643.16
2023-05-09T18:49:56.159Z,99644.30
2023-05-09T18:52:24.656Z,99646.05
2023-05-09T18:54:53.536Z,99646.61
2023-05-09T18:57:21.778Z,99649.34
2023-05-09T18:59:52.998Z,99649.80
2023-05-09T19:02:22.610Z,99647.13
2023-05-09T19:04:51.839Z,99642.54
2023-05-09T19:07:20.273Z,99642.30
2023-05-09T19:09:48.601Z,99642.54
2023-05-09T19:12:17.765Z,99638.75
2023-05-09T19:14:46.074Z,99638.13
2023-05-09T19:17:14.360Z,99634.16
2023-05-09T19:19:42.773Z,99632.27
2023-05-09T19:22:11.067Z,99631.86
2023-05-09T19:24:39.288Z,99636.17
2023-05-09T19:27:07.897Z,99637.44
2023-05-09T19:29:36.195Z,99634.30
2023-05-09T19:32:05.956Z,99634.28
2023-05-09T19:34:34.476Z,99632.33
2023-05-09T19:37:03.826Z,99631.16
2023-05-09T19:39:40.135Z,99633.58
2023-05-09T19:42:08.565Z,99630.02
2023-05-09T19:44:36.924Z,99629.76
2023-05-09T19:47:05.400Z,99624.81
2023-05-09T19:49:33.778Z,99624.52
2023-05-09T19:52:02.035Z,99625.42
2023-05-09T19:54:31.515Z,99626.43
2023-05-09T19:56:59.906Z,99623.46
2023-05-09T19:59:29.537Z,99627.41
2023-05-09T20:01:58.736Z,99624.50
2023-05-09T20:04:27.210Z,99621.95
2023-05-09T20:06:55.522Z,99620.73
2023-05-09T20:09:23.917Z,99618.42
2023-05-09T20:11:52.374Z,99617.62
2023-05-09T20:14:22.431Z,99618.83
2023-05-09T20:16:50.879Z,99619.48
2023-05-09T20:19:20.933Z,99616.46
2023-05-09T20:21:50.537Z,99618.92
2023-05-09T20:24:19.042Z,99620.04
2023-05-09T20:26:47.413Z,99621.13
2023-05-09T20:29:15.705Z,99617.48
2023-05-09T20:31:44.064Z,99617.00
2023-05-09T20:34:16.326Z,99617.30
2023-05-09T20:36:49.396Z,99615.63
2023-05-09T20:39:19.045Z,99617.46
2023-05-09T20:41:48.707Z,99614.48
2023-05-09T20:44:17.976Z,99609.50
2023-05-09T20:46:46.638Z,99604.14
2023-05-09T20:49:15.598Z,99603.91
2023-05-09T20:51:44.068Z,99601.02
2023-05-09T20:54:12.409Z,99601.87
2023-05-09T20:56:40.699Z,99600.16
2023-05-09T20:59:08.984Z,99600.16
2023-05-09T21:01:37.448Z,99599.49
2023-05-09T21:04:08.463Z,99601.59
2023-05-09T21:06:37.081Z,99598.05
2023-05-09T21:09:06.289Z,99594.54
2023-05-09T21:11:35.112Z,99597.07
2023-05-09T21:14:03.344Z,99598.48
2023-05-09T21:16:31.950Z,99593.60
2023-05-09T21:19:02.790Z,99595.74
2023-05-09T21:21:34.281Z,99596.55
2023-05-09T21:24:04.333Z,99596.72
2023-05-09T21:26:32.735Z,99595.36
2023-05-09T21:29:01.000Z,99594.48
2023-05-09T21:31:29.301Z,99592.51
2023-05-09T21:33:59.424Z,99591.95
2023-05-09T21:36:28.311Z,99587.72
2023-05-09T21:38:56.581Z,99587.02
2023-05-09T21:41:24.979Z,99586.50
2023-05-09T21:43:53.228Z,99584.69
2023-05-09T21:46:21.522Z,99582.06
2023-05-09T21:48:49.893Z,99582.98
2023-05-09T21:51:18.079Z,99584.42
2023-05-09T21:53:46.544Z,99584.17
2023-05-09T21:56:15.422Z,99577.55
2023-05-09T21:58:43.753Z,99576.98
2023-05-09T22:01:11.991Z,99577.79
2023-05-09T22:03:40.463Z,99578.74
2023-05-09T22:06:08.800Z,99576.31
2023-05-09T22:08:37.144Z,99581.42
2023-05-09T22:11:05.651Z,99580.57
2023-05-09T22:13:34.008Z,99576.77
2023-05-09T22:16:03.001Z,99571.21
2023-05-09T22:18:31.529Z,99571.84
2023-05-09T22:20:59.804Z,99567.72
2023-05-09T22:23:28.189Z,99567.31
2023-05-09T22:25:56.469Z,99564.27
2023-05-09T22:28:24.727Z,99563.69
2023-05-09T22:30:53.043Z,99566.07
2023-05-09T22:33:21.673Z,99560.30
2023-05-09T22:35:49.993Z,99558.58
2023-05-09T22:38:18.295Z,99555.64
2023-05-09T22:40:46.644Z,99553.52
2023-05-09T22:43:14.960Z,99552.86
2023-05-09T22:45:44.077Z,99550.80
2023-05-09T22:48:12.578Z,99548.55
2023-05-09T22:50:41.386Z,99545.10
2023-05-09T22:53:09.668Z,99546.25
2023-05-09T22:55:38.799Z,99547.42
2023-05-09T22:58:08.060Z,99544.05
2023-05-09T23:00:36.389Z,99542.91
2023-05-09T23:03:05.352Z,99542.10
2023-05-09T23:05:33.730Z,99544.06
2023-05-09T23:08:02.044Z,99535.14
2023-05-09T23:10:30.409Z,99538.66
2023-05-09T23:12:58.769Z,99534.52
2023-05-09T23:15:27.272Z,99534.52
2023-05-09T23:17:55.607Z,99531.55
2023-05-09T23:20:23.917Z,99526.98
2023-05-09T23:22:52.187Z,99526.88
2023-05-09T23:25:20.729Z,99523.55
2023-05-09T23:27:48.877Z,99526.58
2023-05-09T23:30:17.436Z,99522.73
2023-05-09T23:32:46.478Z,99519.92
2023-05-09T23:35:15.131Z,99517.96
2023-05-09T23:37:43.310Z,99511.23
2023-05-09T23:40:12.535Z,99522.06
2023-05-09T23:42:40.794Z,99527.99
2023-05-09T23:45:10.256Z,99524.89
2023-05-09T23:47:38.638Z,99521.41
2023-05-09T23:50:07.868Z,99521.70
2023-05-09T23:52:36.246Z,99521.24
2023-05-09T23:55:05.379Z,99516.37
2023-05-09T23:57:33.749Z,99513.52
